Time;durP1;ratioP1;P1;durP2;ratioP2;P2;SDS_P1;SDS_P2;PMS_P1;PMS_P2;Temp;Humidity;BMP_temperature;BMP_pressure;BME280_temperature;BME280_humidity;BME280_pressure;Samples;Min_cycle;Max_cycle;Signal;HPM_P1;HPM_P2
2023/07/01 00:01:36;;;;;;;5.32;1.90;;;19.10;52.00;;;;;;5037604;28;20040;-66
2023/07/01 00:04:02;;;;;;;6.35;2.55;;;19.10;52.20;;;;;;5054180;28;20075;-66
2023/07/01 00:06:28;;;;;;;4.90;2.35;;;19.10;52.30;;;;;;5054172;28;20403;-66
2023/07/01 00:08:54;;;;;;;4.72;2.10;;;19.00;52.40;;;;;;5054322;28;20119;-66
2023/07/01 00:11:20;;;;;;;8.55;2.50;;;19.00;53.00;;;;;;5054690;28;20044;-66
2023/07/01 00:13:46;;;;;;;7.43;2.38;;;19.00;52.80;;;;;;5054111;28;20044;-66
2023/07/01 00:16:15;;;;;;;6.45;2.20;;;19.00;53.00;;;;;;5054291;28;20519;-66
2023/07/01 00:18:42;;;;;;;5.72;2.17;;;19.00;53.20;;;;;;5053922;28;20044;-66
2023/07/01 00:21:08;;;;;;;7.28;2.22;;;19.00;53.30;;;;;;5054428;28;20563;-66
2023/07/01 00:23:34;;;;;;;5.03;1.98;;;19.00;53.40;;;;;;5054738;28;20395;-66
2023/07/01 00:26:01;;;;;;;7.32;2.40;;;19.00;53.50;;;;;;5054088;28;20048;-66
2023/07/01 00:28:27;;;;;;;7.55;2.08;;;19.00;54.00;;;;;;5054267;28;20044;-66
2023/07/01 00:30:53;;;;;;;6.70;2.58;;;19.00;53.60;;;;;;5057099;28;20055;-66
2023/07/01 00:33:18;;;;;;;7.00;2.10;;;19.00;53.70;;;;;;5043879;28;20036;-66
2023/07/01 00:35:45;;;;;;;5.00;2.30;;;19.00;53.80;;;;;;5060921;28;20033;-66
2023/07/01 00:38:10;;;;;;;7.78;2.38;;;18.90;53.70;;;;;;5053493;28;20086;-66
2023/07/01 00:40:36;;;;;;;6.63;2.22;;;18.90;53.70;;;;;;5044316;28;20399;-66
2023/07/01 00:43:02;;;;;;;5.10;2.28;;;18.90;53.80;;;;;;5078606;28;20036;-66
2023/07/01 00:45:28;;;;;;;7.43;2.22;;;18.90;53.80;;;;;;5060891;28;20036;-66
2023/07/01 00:47:53;;;;;;;6.55;2.08;;;18.90;53.90;;;;;;5060536;28;20384;-66
2023/07/01 00:50:19;;;;;;;5.95;2.38;;;19.00;54.00;;;;;;5060445;28;20076;-66
2023/07/01 00:52:46;;;;;;;8.73;2.67;;;19.00;54.10;;;;;;5060599;28;20093;-66
2023/07/01 00:55:12;;;;;;;6.15;2.30;;;19.00;54.00;;;;;;5060861;28;20033;-66
2023/07/01 00:57:38;;;;;;;7.32;2.60;;;18.90;54.00;;;;;;5078373;28;20112;-66
2023/07/01 01:00:12;;;;;;;5.93;2.20;;;19.00;54.20;;;;;;5060695;28;20488;-66
2023/07/01 01:02:47;;;;;;;5.07;1.98;;;19.00;54.30;;;;;;5060846;28;20499;-66
2023/07/01 01:05:21;;;;;;;6.53;2.03;;;19.00;54.30;;;;;;5060160;28;20061;-66
2023/07/01 01:08:06;;;;;;;5.85;2.30;;;19.00;54.40;;;;;;5056237;28;20113;-66
2023/07/01 01:10:34;;;;;;;6.03;2.28;;;19.00;54.40;;;;;;5060888;28;20119;-66
2023/07/01 01:13:03;;;;;;;3.85;2.22;;;18.90;54.50;;;;;;5059349;28;20467;-66
2023/07/01 01:15:28;;;;;;;6.53;2.47;;;19.00;54.90;;;;;;5073408;28;20067;-66
2023/07/01 01:17:57;;;;;;;6.40;2.40;;;19.00;55.40;;;;;;5060320;28;20082;-66
2023/07/01 01:20:24;;;;;;;3.58;1.95;;;19.00;55.80;;;;;;5060244;28;20041;-66
2023/07/01 01:22:57;;;;;;;5.47;2.55;;;19.00;56.00;;;;;;5060351;28;20045;-66
2023/07/01 01:25:42;;;;;;;4.97;2.10;;;19.00;56.20;;;;;;5043140;28;20040;-66
2023/07/01 01:28:09;;;;;;;6.03;2.33;;;19.00;56.10;;;;;;5058475;28;20177;-66
2023/07/01 01:30:35;;;;;;;7.35;2.50;;;19.00;56.30;;;;;;5060721;28;20043;-66
2023/07/01 01:33:01;;;;;;;4.50;2.08;;;19.00;56.30;;;;;;5078088;28;20391;-66
2023/07/01 01:35:28;;;;;;;7.53;2.58;;;19.00;56.30;;;;;;5043229;28;20115;-66
2023/07/01 01:38:18;;;;;;;7.20;2.55;;;19.00;56.20;;;;;;5060271;28;20058;-66
2023/07/01 01:40:51;;;;;;;4.55;2.35;;;19.00;56.20;;;;;;5060214;28;20045;-66
2023/07/01 01:43:19;;;;;;;6.20;2.42;;;19.00;56.10;;;;;;5056297;28;20418;-66
2023/07/01 01:45:46;;;;;;;6.25;2.67;;;19.00;56.20;;;;;;5056886;28;20423;-66
2023/07/01 01:48:13;;;;;;;6.05;2.65;;;19.00;56.30;;;;;;5056452;28;20093;-66
2023/07/01 01:50:39;;;;;;;8.07;2.90;;;19.00;56.30;;;;;;5057148;28;20036;-66
2023/07/01 01:53:06;;;;;;;5.40;2.70;;;19.00;56.40;;;;;;5056762;28;20036;-66
2023/07/01 01:55:33;;;;;;;6.10;2.40;;;19.00;56.50;;;;;;5053264;28;20102;-66
2023/07/01 01:58:00;;;;;;;7.15;3.13;;;19.00;56.40;;;;;;5056631;28;20154;-66
2023/07/01 02:00:26;;;;;;;8.70;2.90;;;19.00;56.50;;;;;;5039745;28;20057;-66
2023/07/01 02:02:51;;;;;;;6.53;2.90;;;19.00;56.50;;;;;;5056384;28;20113;-66
2023/07/01 02:05:17;;;;;;;7.07;2.75;;;19.00;56.50;;;;;;5055698;28;20134;-66
2023/07/01 02:07:43;;;;;;;8.30;2.88;;;19.00;56.60;;;;;;5074314;28;20052;-66
2023/07/01 02:10:09;;;;;;;5.47;2.80;;;19.00;56.60;;;;;;5056364;28;20051;-67
2023/07/01 02:12:35;;;;;;;7.80;3.20;;;19.00;56.80;;;;;;5056308;28;20067;-67
2023/07/01 02:15:00;;;;;;;4.60;3.22;;;19.00;57.20;;;;;;5056293;28;20068;-67
2023/07/01 02:17:26;;;;;;;7.75;3.10;;;19.00;57.90;;;;;;5056268;28;20048;-66
2023/07/01 02:19:52;;;;;;;6.38;3.08;;;19.00;58.20;;;;;;5056474;28;20105;-66
2023/07/01 02:22:18;;;;;;;10.48;3.47;;;19.00;58.60;;;;;;5056033;28;20128;-66
2023/07/01 02:24:43;;;;;;;7.18;3.00;;;18.90;58.60;;;;;;5056764;28;20066;-66
2023/07/01 02:27:09;;;;;;;6.30;3.20;;;18.90;58.60;;;;;;5056133;28;20484;-66
2023/07/01 02:29:35;;;;;;;6.30;3.47;;;18.90;58.50;;;;;;5055937;28;20074;-67
2023/07/01 02:32:01;;;;;;;8.75;3.72;;;18.80;58.40;;;;;;5056481;28;20032;-66
2023/07/01 02:34:27;;;;;;;8.55;3.97;;;18.80;59.00;;;;;;5055788;28;20048;-66
2023/07/01 02:36:54;;;;;;;7.13;3.67;;;18.80;60.20;;;;;;5055875;28;20040;-66
2023/07/01 02:39:19;;;;;;;7.20;4.15;;;18.70;61.00;;;;;;5074103;28;20045;-66
2023/07/01 02:41:45;;;;;;;8.07;3.83;;;18.70;61.60;;;;;;5056193;28;20361;-67
2023/07/01 02:44:11;;;;;;;6.28;4.18;;;18.70;62.20;;;;;;5056548;28;20048;-66
2023/07/01 02:46:37;;;;;;;7.43;3.70;;;18.60;62.70;;;;;;5038687;28;20089;-66
2023/07/01 02:49:04;;;;;;;7.38;3.70;;;18.60;62.50;;;;;;5073608;28;20174;-67
2023/07/01 02:51:30;;;;;;;6.68;4.07;;;18.50;62.90;;;;;;5055647;28;20390;-66
2023/07/01 02:53:55;;;;;;;6.80;3.47;;;18.50;63.10;;;;;;5055752;28;20111;-67
2023/07/01 02:56:21;;;;;;;8.00;3.58;;;18.50;63.40;;;;;;5055480;28;20044;-66
2023/07/01 02:58:47;;;;;;;9.45;3.95;;;18.40;63.50;;;;;;5039084;28;20040;-66
2023/07/01 03:01:13;;;;;;;8.63;3.40;;;18.40;64.10;;;;;;5055860;28;20043;-66
2023/07/01 03:03:40;;;;;;;7.60;3.47;;;18.30;64.60;;;;;;5055758;28;20044;-67
2023/07/01 03:06:06;;;;;;;6.72;3.00;;;18.30;64.60;;;;;;5055450;28;20032;-67
2023/07/01 03:08:32;;;;;;;5.28;3.47;;;18.30;65.20;;;;;;5073019;28;20432;-66
2023/07/01 03:10:58;;;;;;;7.95;3.40;;;18.30;65.30;;;;;;5055548;28;20075;-66
2023/07/01 03:13:23;;;;;;;6.05;3.08;;;18.20;65.10;;;;;;5055474;28;20442;-66
2023/07/01 03:15:50;;;;;;;7.18;3.25;;;18.20;65.10;;;;;;5055159;28;20064;-67
2023/07/01 03:18:15;;;;;;;4.07;2.45;;;18.20;65.40;;;;;;5055370;28;20056;-67
2023/07/01 03:20:41;;;;;;;8.10;3.83;;;18.20;65.20;;;;;;5073239;28;20104;-66
2023/07/01 03:23:07;;;;;;;6.10;2.90;;;18.10;65.50;;;;;;5054996;28;20114;-67
2023/07/01 03:25:33;;;;;;;6.97;3.38;;;18.10;66.00;;;;;;5055049;28;20072;-67
2023/07/01 03:27:58;;;;;;;7.57;3.15;;;18.20;66.30;;;;;;5038280;28;20040;-67
2023/07/01 03:30:30;;;;;;;4.38;2.40;;;18.10;66.60;;;;;;5055175;28;20033;-67
2023/07/01 03:32:56;;;;;;;7.13;2.95;;;18.10;66.30;;;;;;5054780;28;20525;-66
2023/07/01 03:35:22;;;;;;;6.40;3.13;;;18.10;66.50;;;;;;5054941;28;20437;-66
2023/07/01 03:37:48;;;;;;;7.20;3.25;;;18.10;66.90;;;;;;5038188;28;20575;-66
2023/07/01 03:40:14;;;;;;;5.65;3.10;;;18.10;66.80;;;;;;5054901;28;20131;-66
2023/07/01 03:42:40;;;;;;;6.80;3.33;;;18.00;66.60;;;;;;5055016;28;20040;-66
2023/07/01 03:45:08;;;;;;;7.20;3.58;;;18.00;67.00;;;;;;5054564;28;20036;-66
2023/07/01 03:47:45;;;;;;;6.03;3.03;;;18.00;67.00;;;;;;5054723;28;20403;-66
2023/07/01 03:50:12;;;;;;;5.97;3.20;;;18.00;67.00;;;;;;5038531;28;20040;-66
2023/07/01 03:52:39;;;;;;;6.30;3.05;;;18.00;67.30;;;;;;5038329;28;20033;-66
2023/07/01 03:55:07;;;;;;;8.35;3.97;;;18.00;67.30;;;;;;5054542;28;20388;-66
2023/07/01 03:57:34;;;;;;;7.80;3.88;;;18.00;67.70;;;;;;5054587;28;20048;-66
2023/07/01 04:00:08;;;;;;;9.85;4.18;;;18.00;68.00;;;;;;5054348;28;20158;-66
2023/07/01 04:02:35;;;;;;;8.52;3.80;;;17.90;68.20;;;;;;5053741;28;20052;-66
2023/07/01 04:05:09;;;;;;;7.57;4.00;;;18.00;68.40;;;;;;5071717;28;20113;-66
2023/07/01 04:07:39;;;;;;;9.07;4.78;;;17.90;68.40;;;;;;5054135;28;20087;-66
2023/07/01 04:10:07;;;;;;;8.55;4.45;;;17.90;68.70;;;;;;5054024;28;20033;-66
2023/07/01 04:12:34;;;;;;;7.05;4.10;;;17.90;68.90;;;;;;5054374;28;20048;-66
2023/07/01 04:15:01;;;;;;;6.95;3.75;;;18.00;69.00;;;;;;5053959;28;20032;-67
2023/07/01 04:17:28;;;;;;;6.45;3.45;;;17.90;69.10;;;;;;5054396;28;20400;-67
2023/07/01 04:19:53;;;;;;;7.78;3.70;;;17.90;69.20;;;;;;5054291;28;20048;-67
2023/07/01 04:22:20;;;;;;;7.60;4.78;;;17.90;69.30;;;;;;5054710;28;20048;-67
2023/07/01 04:24:45;;;;;;;6.20;3.50;;;17.90;69.40;;;;;;5054029;28;20045;-67
2023/07/01 04:27:11;;;;;;;6.60;3.70;;;17.80;69.30;;;;;;5053962;28;20048;-67
2023/07/01 04:29:37;;;;;;;8.07;4.15;;;17.80;69.30;;;;;;5054468;28;20036;-67
2023/07/01 04:32:03;;;;;;;6.57;3.63;;;17.80;69.40;;;;;;5054389;28;20102;-67
2023/07/01 04:34:29;;;;;;;9.90;3.28;;;17.90;69.50;;;;;;5053550;28;20043;-67
2023/07/01 04:36:54;;;;;;;6.22;3.63;;;17.80;69.50;;;;;;5053776;28;20391;-67
2023/07/01 04:39:23;;;;;;;8.80;3.70;;;17.80;69.40;;;;;;5054242;28;20041;-67
2023/07/01 04:41:49;;;;;;;8.68;4.13;;;17.90;69.80;;;;;;5054223;28;20439;-67
2023/07/01 04:44:16;;;;;;;6.43;3.28;;;17.80;69.80;;;;;;5053880;28;20102;-67
2023/07/01 04:46:41;;;;;;;6.00;3.45;;;17.80;69.70;;;;;;5054102;28;20120;-67
2023/07/01 04:49:10;;;;;;;8.10;4.13;;;17.80;69.50;;;;;;5053423;28;20123;-67
2023/07/01 04:51:39;;;;;;;7.80;4.20;;;17.90;69.70;;;;;;5054123;28;20032;-67
2023/07/01 04:54:04;;;;;;;8.70;4.05;;;17.90;69.90;;;;;;5053825;28;20040;-67
2023/07/01 04:56:31;;;;;;;5.15;3.17;;;17.90;69.90;;;;;;5054121;28;20044;-67
2023/07/01 04:58:57;;;;;;;7.07;3.47;;;17.90;70.00;;;;;;5054270;28;20075;-67
2023/07/01 05:01:23;;;;;;;5.85;4.20;;;17.90;69.90;;;;;;5050252;28;20396;-67
2023/07/01 05:03:48;;;;;;;5.60;3.55;;;17.90;70.20;;;;;;5053900;28;20041;-67
2023/07/01 05:06:15;;;;;;;9.25;4.60;;;17.90;70.20;;;;;;5052830;28;20048;-67
2023/07/01 05:08:41;;;;;;;6.78;3.70;;;17.90;70.70;;;;;;5053731;28;20118;-67
2023/07/01 05:11:07;;;;;;;7.00;3.97;;;18.00;70.80;;;;;;5071732;28;20044;-67
2023/07/01 05:13:33;;;;;;;7.30;3.88;;;17.90;70.60;;;;;;5020707;28;20032;-67
2023/07/01 05:15:59;;;;;;;9.38;3.80;;;18.00;70.80;;;;;;5020666;28;20036;-67
2023/07/01 05:18:24;;;;;;;6.53;4.03;;;18.00;70.90;;;;;;5056328;28;20071;-67
2023/07/01 05:20:50;;;;;;;10.52;4.47;;;18.00;71.00;;;;;;5057305;28;20110;-67
2023/07/01 05:23:16;;;;;;;7.53;3.60;;;18.00;71.10;;;;;;5040774;28;20048;-67
2023/07/01 05:25:41;;;;;;;7.53;4.45;;;18.00;70.90;;;;;;5057365;28;20072;-67
2023/07/01 05:28:07;;;;;;;8.95;4.97;;;18.00;71.00;;;;;;5057410;28;20040;-67
2023/07/01 05:30:33;;;;;;;7.53;4.20;;;18.00;71.20;;;;;;5056554;28;20487;-67
2023/07/01 05:32:59;;;;;;;7.82;5.00;;;18.00;71.20;;;;;;5057158;28;20059;-67
2023/07/01 05:35:24;;;;;;;6.07;4.07;;;18.00;71.30;;;;;;5040326;28;20048;-67
2023/07/01 05:37:52;;;;;;;7.50;4.25;;;18.10;71.70;;;;;;5057393;28;20498;-67
2023/07/01 05:40:18;;;;;;;6.00;4.38;;;18.10;71.90;;;;;;5057049;28;20501;-67
2023/07/01 05:42:45;;;;;;;6.85;4.20;;;18.10;72.10;;;;;;5024283;28;20053;-67
2023/07/01 05:45:12;;;;;;;8.02;4.88;;;18.10;72.50;;;;;;5056964;28;20071;-67
2023/07/01 05:47:38;;;;;;;6.18;4.18;;;18.10;72.80;;;;;;5056984;28;20051;-67
2023/07/01 05:50:04;;;;;;;5.82;4.40;;;18.10;72.90;;;;;;5074835;28;20119;-67
2023/07/01 05:52:30;;;;;;;5.03;3.13;;;18.10;72.80;;;;;;5074659;28;20037;-67
2023/07/01 05:54:56;;;;;;;11.10;5.07;;;18.10;72.80;;;;;;5057293;28;20028;-67
2023/07/01 05:57:22;;;;;;;8.52;5.03;;;18.10;73.20;;;;;;5057209;28;20534;-67
2023/07/01 05:59:47;;;;;;;6.45;3.45;;;18.10;73.80;;;;;;5056656;28;20541;-67
2023/07/01 06:02:13;;;;;;;6.80;4.10;;;18.10;73.80;;;;;;5056692;28;20087;-67
2023/07/01 06:04:39;;;;;;;6.93;4.13;;;18.10;73.90;;;;;;5074509;28;20040;-67
2023/07/01 06:07:05;;;;;;;7.05;4.10;;;18.10;74.10;;;;;;5056764;28;20040;-67
2023/07/01 06:09:30;;;;;;;6.75;4.20;;;18.10;74.30;;;;;;5056243;28;20045;-67
2023/07/01 06:11:56;;;;;;;8.57;4.70;;;18.20;74.60;;;;;;5056547;28;20073;-67
2023/07/01 06:14:22;;;;;;;6.45;4.38;;;18.20;74.90;;;;;;5056858;28;20049;-67
2023/07/01 06:16:47;;;;;;;6.30;4.60;;;18.20;75.00;;;;;;5023338;28;20432;-67
2023/07/01 06:19:13;;;;;;;6.35;4.47;;;18.20;75.20;;;;;;5039919;28;20052;-67
2023/07/01 06:21:39;;;;;;;6.90;5.05;;;18.20;75.50;;;;;;5023445;28;20133;-67
2023/07/01 06:24:05;;;;;;;7.55;4.65;;;18.10;75.60;;;;;;5056319;28;20044;-67
2023/07/01 06:26:30;;;;;;;8.75;5.45;;;18.10;75.60;;;;;;5055953;28;20047;-67
2023/07/01 06:28:56;;;;;;;8.55;5.30;;;18.20;75.90;;;;;;5055974;28;20037;-68
2023/07/01 06:31:22;;;;;;;5.80;4.65;;;18.10;76.20;;;;;;5056134;28;20045;-67
2023/07/01 06:33:48;;;;;;;6.93;5.50;;;18.10;76.20;;;;;;5055469;28;20067;-68
2023/07/01 06:36:17;;;;;;;6.57;4.72;;;18.10;76.40;;;;;;5056453;28;20046;-68
2023/07/01 06:38:43;;;;;;;8.05;5.20;;;18.10;76.60;;;;;;5055790;28;20094;-68
2023/07/01 06:41:09;;;;;;;6.70;5.03;;;18.10;77.40;;;;;;5056383;28;20412;-68
2023/07/01 06:43:39;;;;;;;7.25;5.15;;;18.10;77.00;;;;;;5055963;28;20032;-67
2023/07/01 06:46:06;;;;;;;5.35;4.50;;;18.10;77.20;;;;;;5056280;28;20480;-68
2023/07/01 06:48:32;;;;;;;8.65;5.82;;;18.10;77.30;;;;;;5055894;28;20045;-68
2023/07/01 06:50:58;;;;;;;6.95;5.57;;;18.10;77.50;;;;;;5039394;28;20032;-68
2023/07/01 06:53:23;;;;;;;6.03;4.15;;;18.10;77.70;;;;;;5056083;28;20090;-68
2023/07/01 06:55:49;;;;;;;7.57;4.60;;;18.00;77.40;;;;;;5039171;28;20106;-68
2023/07/01 06:58:15;;;;;;;5.88;4.93;;;18.10;77.40;;;;;;5055468;28;20048;-68
2023/07/01 07:00:42;;;;;;;7.18;5.22;;;18.10;77.60;;;;;;5054770;28;20044;-67
2023/07/01 07:03:07;;;;;;;6.60;5.57;;;18.10;77.70;;;;;;5039834;28;20079;-68
2023/07/01 07:05:33;;;;;;;5.75;4.38;;;18.10;77.90;;;;;;5055405;28;20447;-68
2023/07/01 07:08:00;;;;;;;4.93;3.83;;;18.10;78.10;;;;;;5055462;28;20056;-67
2023/07/01 07:10:26;;;;;;;5.55;4.13;;;18.10;78.10;;;;;;5052287;28;20041;-68
2023/07/01 07:12:52;;;;;;;6.25;4.55;;;18.10;78.10;;;;;;5022225;28;20411;-67
2023/07/01 07:15:18;;;;;;;5.00;4.60;;;18.10;78.20;;;;;;5055556;28;20036;-67
2023/07/01 07:17:44;;;;;;;7.47;5.60;;;18.20;78.50;;;;;;5055326;28;20381;-67
2023/07/01 07:20:10;;;;;;;7.15;5.63;;;18.20;78.80;;;;;;5038713;28;20491;-67
2023/07/01 07:22:36;;;;;;;6.60;5.50;;;18.20;79.10;;;;;;5055119;28;20046;-67
2023/07/01 07:25:01;;;;;;;5.80;5.22;;;18.20;79.10;;;;;;5055035;28;20036;-67
2023/07/01 07:27:27;;;;;;;5.05;4.38;;;18.20;79.10;;;;;;5053338;28;20044;-67
2023/07/01 07:29:53;;;;;;;6.95;5.85;;;18.20;79.10;;;;;;5054987;28;20145;-67
2023/07/01 07:32:18;;;;;;;7.07;6.35;;;18.20;79.30;;;;;;5055007;28;20053;-67
2023/07/01 07:34:44;;;;;;;6.28;4.97;;;18.20;79.60;;;;;;5055343;28;20033;-67
2023/07/01 07:37:10;;;;;;;7.20;6.50;;;18.20;79.70;;;;;;5055004;28;20407;-68
2023/07/01 07:39:36;;;;;;;8.13;5.30;;;18.30;80.00;;;;;;5072277;28;20040;-67
2023/07/01 07:42:02;;;;;;;5.85;5.22;;;18.30;80.00;;;;;;5054470;28;20036;-68
2023/07/01 07:44:28;;;;;;;7.60;6.00;;;18.30;79.90;;;;;;5042430;28;20063;-68
2023/07/01 07:46:55;;;;;;;6.32;5.72;;;18.40;80.00;;;;;;5035218;28;20056;-68
2023/07/01 07:49:21;;;;;;;6.82;5.05;;;18.40;80.00;;;;;;5055157;28;20090;-68
2023/07/01 07:51:47;;;;;;;4.10;3.65;;;18.40;79.80;;;;;;5054908;28;20438;-68
2023/07/01 07:54:13;;;;;;;5.88;5.28;;;18.40;79.40;;;;;;5054844;28;20029;-68
2023/07/01 07:56:38;;;;;;;6.93;5.38;;;18.40;79.60;;;;;;5054411;28;20476;-67
2023/07/01 07:59:04;;;;;;;6.18;5.55;;;18.50;79.70;;;;;;5053311;28;20036;-67
2023/07/01 08:01:30;;;;;;;6.47;5.93;;;18.50;79.70;;;;;;5054310;28;20287;-67
2023/07/01 08:03:56;;;;;;;5.10;4.43;;;18.50;79.90;;;;;;5054743;28;20465;-67
2023/07/01 08:06:21;;;;;;;5.70;5.20;;;18.60;79.70;;;;;;5038661;28;20040;-67
2023/07/01 08:08:47;;;;;;;6.10;5.50;;;18.60;79.70;;;;;;5054015;28;20044;-68
2023/07/01 08:11:13;;;;;;;5.50;4.38;;;18.60;79.70;;;;;;5054079;28;20052;-68
2023/07/01 08:13:38;;;;;;;5.47;4.97;;;18.70;79.80;;;;;;5054209;28;20048;-68
2023/07/01 08:16:05;;;;;;;6.38;5.35;;;18.70;79.70;;;;;;5054377;28;20131;-69
2023/07/01 08:18:31;;;;;;;6.55;5.40;;;18.70;79.80;;;;;;5053995;28;20048;-68
2023/07/01 08:20:57;;;;;;;6.70;5.97;;;18.80;79.90;;;;;;5054336;28;20507;-68
2023/07/01 08:23:22;;;;;;;5.20;4.65;;;18.80;79.90;;;;;;5053515;28;20036;-68
2023/07/01 08:25:48;;;;;;;5.10;4.60;;;18.80;79.60;;;;;;5053565;28;20043;-68
2023/07/01 08:28:14;;;;;;;5.40;4.90;;;18.80;79.50;;;;;;5037643;28;20429;-69
2023/07/01 08:30:39;;;;;;;6.40;4.97;;;18.80;79.40;;;;;;5033435;28;20127;-69
2023/07/01 08:33:05;;;;;;;5.70;4.93;;;18.80;79.60;;;;;;5072305;28;20036;-69
2023/07/01 08:35:31;;;;;;;5.60;5.10;;;18.90;79.80;;;;;;5053657;28;20040;-69
2023/07/01 08:37:56;;;;;;;5.82;5.22;;;18.90;79.90;;;;;;5034190;28;20040;-69
2023/07/01 08:40:22;;;;;;;5.28;4.65;;;18.90;80.00;;;;;;5053179;28;20045;-69
2023/07/01 08:42:50;;;;;;;6.32;5.05;;;18.90;80.10;;;;;;5053608;28;20119;-68
2023/07/01 08:45:20;;;;;;;5.60;4.97;;;18.90;80.20;;;;;;5036309;28;20109;-68
2023/07/01 08:47:47;;;;;;;5.90;5.40;;;19.00;80.30;;;;;;5053635;28;20044;-68
2023/07/01 08:50:18;;;;;;;5.85;5.25;;;18.90;80.30;;;;;;5052881;28;20387;-68
2023/07/01 08:52:46;;;;;;;5.75;5.15;;;19.00;80.80;;;;;;5057628;28;20049;-68
2023/07/01 08:55:12;;;;;;;5.78;5.07;;;19.00;80.40;;;;;;5056294;28;20110;-68
2023/07/01 08:57:42;;;;;;;6.03;5.32;;;19.00;80.40;;;;;;5075792;28;20142;-68
2023/07/01 09:00:09;;;;;;;6.13;5.53;;;19.00;80.30;;;;;;5057450;28;20123;-69
2023/07/01 09:02:36;;;;;;;5.97;4.60;;;19.00;80.40;;;;;;5056321;28;20049;-68
2023/07/01 09:05:02;;;;;;;6.03;5.43;;;19.00;80.50;;;;;;5057825;28;20044;-68
2023/07/01 09:07:29;;;;;;;5.90;5.40;;;19.10;80.70;;;;;;5057194;28;20103;-69
2023/07/01 09:10:00;;;;;;;6.18;5.65;;;19.10;80.80;;;;;;5057809;28;20383;-69
2023/07/01 09:12:32;;;;;;;5.55;5.05;;;19.10;81.00;;;;;;5057835;28;20085;-70
2023/07/01 09:15:03;;;;;;;5.82;5.32;;;19.10;81.10;;;;;;5041072;28;20119;-70
2023/07/01 09:17:32;;;;;;;5.32;4.82;;;19.10;81.30;;;;;;5053662;28;20044;-70
2023/07/01 09:19:59;;;;;;;5.45;4.95;;;19.20;81.40;;;;;;5057448;28;20390;-69
2023/07/01 09:22:26;;;;;;;6.05;5.55;;;19.20;81.30;;;;;;5057730;28;20051;-69
2023/07/01 09:24:52;;;;;;;5.50;5.00;;;19.20;81.30;;;;;;5057588;28;20476;-69
2023/07/01 09:27:17;;;;;;;5.20;4.80;;;19.20;81.30;;;;;;5057649;28;20028;-68
2023/07/01 09:29:43;;;;;;;5.78;5.28;;;19.20;81.40;;;;;;5056606;28;20040;-68
2023/07/01 09:32:09;;;;;;;6.85;6.18;;;19.30;81.50;;;;;;5057209;28;20483;-68
2023/07/01 09:34:55;;;;;;;5.80;5.30;;;19.30;81.60;;;;;;5055429;28;20044;-68
2023/07/01 09:37:23;;;;;;;6.18;5.57;;;19.30;81.50;;;;;;5023484;28;20561;-68
2023/07/01 09:39:49;;;;;;;6.25;5.65;;;19.30;81.60;;;;;;5057016;28;20067;-69
2023/07/01 09:42:18;;;;;;;5.65;5.15;;;19.40;81.80;;;;;;5024648;28;20044;-69
2023/07/01 09:45:09;;;;;;;4.88;4.47;;;19.40;81.70;;;;;;5057424;28;20118;-69
2023/07/01 09:47:35;;;;;;;5.05;4.65;;;19.40;81.30;;;;;;5033093;28;20044;-69
2023/07/01 09:50:02;;;;;;;6.07;5.57;;;19.40;81.30;;;;;;5056639;28;20048;-68
2023/07/01 09:52:31;;;;;;;5.90;5.40;;;19.40;81.30;;;;;;5056765;28;20051;-68
2023/07/01 09:55:00;;;;;;;6.15;5.65;;;19.40;81.30;;;;;;5040423;28;20387;-67
2023/07/01 09:57:26;;;;;;;5.65;5.15;;;19.40;81.20;;;;;;5040333;28;20043;-68
2023/07/01 09:59:52;;;;;;;5.07;4.68;;;19.40;81.20;;;;;;5056524;28;20044;-68
2023/07/01 10:02:18;;;;;;;5.65;5.20;;;19.50;81.30;;;;;;5055949;28;20043;-68
2023/07/01 10:04:44;;;;;;;6.53;5.93;;;19.50;81.50;;;;;;5055825;28;20056;-68
2023/07/01 10:07:10;;;;;;;6.50;5.90;;;19.50;81.70;;;;;;5056214;28;20131;-70
2023/07/01 10:09:42;;;;;;;4.88;4.47;;;19.50;82.00;;;;;;5056856;28;20433;-70
2023/07/01 10:12:08;;;;;;;5.93;5.43;;;19.60;82.10;;;;;;5054086;28;20099;-69
2023/07/01 10:14:35;;;;;;;5.05;4.65;;;19.60;82.50;;;;;;5033059;28;20098;-70
2023/07/01 10:17:01;;;;;;;4.50;4.10;;;19.70;82.10;;;;;;5020923;28;20044;-68
2023/07/01 10:19:28;;;;;;;5.32;4.82;;;19.70;82.00;;;;;;5016709;28;20492;-68
2023/07/01 10:22:22;;;;;;;4.05;3.70;;;19.70;82.00;;;;;;5038147;28;20055;-67
2023/07/01 10:24:55;;;;;;;4.85;4.45;;;19.80;81.70;;;;;;5038794;28;20041;-68
2023/07/01 10:27:39;;;;;;;4.68;4.22;;;19.80;81.90;;;;;;5044891;28;20060;-69
2023/07/01 10:30:06;;;;;;;5.15;4.65;;;19.90;81.70;;;;;;5052962;28;20033;-69
2023/07/01 10:32:33;;;;;;;4.18;3.78;;;19.90;81.80;;;;;;5038172;28;20419;-69
2023/07/01 10:34:59;;;;;;;4.10;3.70;;;19.90;81.50;;;;;;5056295;28;20040;-68
2023/07/01 10:37:29;;;;;;;4.82;4.43;;;20.00;81.30;;;;;;5056028;28;20139;-67
2023/07/01 10:39:56;;;;;;;5.05;4.55;;;20.10;81.40;;;;;;5056183;28;20052;-67
2023/07/01 10:42:31;;;;;;;4.45;4.00;;;20.00;81.50;;;;;;5055295;28;20040;-67
2023/07/01 10:45:12;;;;;;;3.80;3.40;;;20.00;81.30;;;;;;5033623;28;20049;-67
2023/07/01 10:47:43;;;;;;;5.35;4.18;;;20.10;80.90;;;;;;5030176;28;20037;-67
2023/07/01 10:50:13;;;;;;;3.67;3.35;;;20.10;81.00;;;;;;5038931;28;20120;-68
2023/07/01 10:52:57;;;;;;;3.50;3.20;;;20.10;80.70;;;;;;5020021;28;20041;-67
2023/07/01 10:55:35;;;;;;;3.33;2.72;;;20.20;80.20;;;;;;5055639;28;20036;-67
2023/07/01 10:58:14;;;;;;;3.15;2.85;;;20.20;79.90;;;;;;5056037;28;20066;-66
2023/07/01 11:00:40;;;;;;;4.45;3.75;;;20.20;79.70;;;;;;5055816;28;20048;-66
2023/07/01 11:03:36;;;;;;;3.75;3.40;;;20.20;80.20;;;;;;5055206;28;20036;-67
2023/07/01 11:06:02;;;;;;;4.25;3.10;;;20.30;80.50;;;;;;5052664;28;20045;-66
2023/07/01 11:08:29;;;;;;;4.28;2.40;;;20.30;80.60;;;;;;5054850;28;20059;-67
2023/07/01 11:10:56;;;;;;;3.00;2.30;;;20.30;80.50;;;;;;5063053;28;20372;-67
2023/07/01 11:13:22;;;;;;;3.17;2.10;;;20.30;80.70;;;;;;5045568;28;20037;-67
2023/07/01 11:16:03;;;;;;;4.60;2.05;;;20.30;80.70;;;;;;5044779;28;20040;-67
2023/07/01 11:18:45;;;;;;;2.53;2.00;;;20.40;81.00;;;;;;5047561;28;20024;-68
2023/07/01 11:21:14;;;;;;;3.10;2.42;;;20.40;81.10;;;;;;5039179;28;20064;-68
2023/07/01 11:23:54;;;;;;;3.20;2.30;;;20.40;81.40;;;;;;5064249;28;20122;-68
2023/07/01 11:26:21;;;;;;;3.60;2.78;;;20.50;81.60;;;;;;5048361;28;20048;-68
2023/07/01 11:28:47;;;;;;;3.92;2.80;;;20.50;81.90;;;;;;5045499;28;20041;-68
2023/07/01 11:31:18;;;;;;;3.33;2.55;;;20.60;82.20;;;;;;5046636;28;20048;-68
2023/07/01 11:33:47;;;;;;;3.03;2.67;;;20.70;82.40;;;;;;5047668;28;20082;-68
2023/07/01 11:36:15;;;;;;;3.80;2.83;;;20.70;82.30;;;;;;5046763;28;20037;-68
2023/07/01 11:38:48;;;;;;;4.35;3.03;;;20.80;82.30;;;;;;5031153;28;20047;-68
2023/07/01 11:41:19;;;;;;;5.10;2.75;;;20.90;82.30;;;;;;5046355;28;20357;-68
2023/07/01 11:43:45;;;;;;;4.63;3.30;;;21.00;82.10;;;;;;5029681;28;20153;-68
2023/07/01 11:46:12;;;;;;;3.78;3.05;;;21.10;81.80;;;;;;5047932;28;20379;-68
2023/07/01 11:48:41;;;;;;;4.10;3.63;;;21.20;81.20;;;;;;5047738;28;20105;-68
2023/07/01 11:51:07;;;;;;;3.72;3.35;;;21.20;80.90;;;;;;5046031;28;20043;-68
2023/07/01 11:53:36;;;;;;;5.03;3.17;;;21.20;80.30;;;;;;5047512;28;20033;-68
2023/07/01 11:56:03;;;;;;;3.88;3.47;;;21.30;79.70;;;;;;5045487;28;20059;-68
2023/07/01 11:58:35;;;;;;;4.10;3.63;;;21.30;79.20;;;;;;5039095;28;20124;-68
2023/07/01 12:01:00;;;;;;;4.03;3.35;;;21.30;79.10;;;;;;5044260;28;20481;-66
2023/07/01 12:03:33;;;;;;;4.57;3.22;;;21.20;78.80;;;;;;5047074;28;20085;-67
2023/07/01 12:05:59;;;;;;;3.00;2.58;;;21.20;78.30;;;;;;5045978;28;20119;-66
2023/07/01 12:08:25;;;;;;;4.03;3.13;;;21.20;77.90;;;;;;5045929;28;20752;-68
2023/07/01 12:10:52;;;;;;;2.97;2.60;;;21.10;77.70;;;;;;5044663;28;20059;-67
2023/07/01 12:13:30;;;;;;;4.88;3.92;;;21.10;77.90;;;;;;5027295;28;20037;-67
2023/07/01 12:15:59;;;;;;;5.55;3.63;;;21.10;77.70;;;;;;5045616;28;20045;-67
2023/07/01 12:18:29;;;;;;;4.22;3.40;;;21.10;78.00;;;;;;5046062;28;20042;-68
2023/07/01 12:20:56;;;;;;;4.78;3.72;;;21.00;78.10;;;;;;5045341;28;20044;-67
2023/07/01 12:23:22;;;;;;;5.55;4.00;;;21.00;78.40;;;;;;5058729;28;20111;-68
2023/07/01 12:25:49;;;;;;;5.57;4.50;;;21.00;78.70;;;;;;5045995;28;20120;-67
2023/07/01 12:28:15;;;;;;;6.75;4.88;;;20.90;79.00;;;;;;5044854;28;20112;-68
2023/07/01 12:30:41;;;;;;;6.57;5.90;;;20.90;79.40;;;;;;5047481;28;20052;-68
2023/07/01 12:33:07;;;;;;;7.82;5.75;;;21.00;79.70;;;;;;5046847;28;20048;-68
2023/07/01 12:35:33;;;;;;;6.65;5.38;;;20.90;79.90;;;;;;5029944;28;20078;-68
2023/07/01 12:37:58;;;;;;;5.03;4.53;;;21.00;79.80;;;;;;5028575;28;20132;-68
2023/07/01 12:40:28;;;;;;;4.90;4.00;;;21.00;79.50;;;;;;5044895;28;20036;-68
2023/07/01 12:42:54;;;;;;;4.03;2.88;;;21.00;78.90;;;;;;5048072;28;20139;-68
2023/07/01 12:45:20;;;;;;;3.67;2.88;;;20.90;78.40;;;;;;5053416;28;20071;-67
2023/07/01 12:47:46;;;;;;;4.28;3.20;;;20.90;78.20;;;;;;5046930;28;20461;-67